Raymond, Kansas
Current Conditions -  °F | °C
As of 10:15 AM on Monday 26 Jan 2015 (Local Time) from KGBD Reporting Station
Clear Clear  
Wind Chill: 52°   Ceiling: Unl
Heat Index: 52°   Visibility: 10mi
Dew Point: 34°   Wind: 17mph
Humidity: 50%   Direction: 320°NW
Pressure: 30.07"   Gusts: NA
Location:  38.28°N, 98.42°W
Report Text: KGBD 261615Z AUTO 32015KT 10SM CLR 11/01 A3007 RMK AO1
Loading
Personal Weather Stations






























Interactive Weather Map New forecast layout! Learn more

10-Day Weather Forecast

Advertisements
Track Severe Weather on mobile